Bridgeport Valley, California Weather observations

Data are for 10 minute period ending at time listed.
 Day   Time   Solar   Ave.   Ave.  Ave.  Vector  Max.   Baro.   Total    
  of    of     Rad.   Air    Rel.  Wind   Wind   Wind  Press.  Precip.   
Year   Day            Temp.  Hum.  Speed  Dir.   Gust                    
2016   (PST)  Kw/m2    F      %     mph   deg.    mph    mb.     in.     
-------------------------------------------------------------------------
 205   15:30   0.74   81.9    21    8.9   243    12.2   804.4    0.00 
 205   15:40   0.71   81.7    21    8.8   248    12.2   804.4    0.00 
 205   15:50   0.68   81.0    22    9.3   248    13.5   804.3    0.00 
 205   16:00   0.64   80.9    22    8.2   245    12.9   804.3    0.00 
 205   16:10   0.61   81.2    22    8.1   241    11.9   804.3    0.00 
 205   16:20   0.57   80.6    20    8.9   237    14.0   804.3    0.00 
 205   16:30   0.54   80.0    23    8.0   237    11.7   804.2    0.00 
 205   16:40   0.50   79.8    22    8.7   238    12.4   804.1    0.00 
 205   16:50   0.47   79.0    23    8.8   235    11.6   804.0    0.00 
 205   17:00   0.43   78.4    23    8.9   238    11.8   804.0    0.00 
 205   17:10   0.39   77.5    23    9.2   238    12.5   803.8    0.00 
 205   17:20   0.36   77.1    24    8.4   240    13.3   803.8    0.00 
 205   17:30   0.32   76.4    23    9.1   240    13.1   803.7    0.00 
 205   17:40   0.28   75.4    25    8.1   241    11.9   803.7    0.00 
 205   17:50   0.25   74.4    26    7.1   251    10.5   803.6    0.00 
 205   18:00   0.22   73.7    25    7.2   253     9.6   803.6    0.00 
 205   18:10   0.18   72.8    26    6.6   256     8.9   803.6    0.00 
 205   18:20   0.15   71.9    26    6.5   259     9.3   803.6    0.00 
 205   18:30   0.12   70.4    27    6.0   266     8.1   803.6    0.00 
 205   18:40   0.10   69.1    28    5.5   272     6.7   803.7    0.00 
 205   18:50   0.03   69.3    23    5.5   284     8.2   803.8    0.00 
 205   19:00   0.01   64.8    30    5.4   312     7.0   804.0    0.00 
 205   19:10   0.01   63.6    32    4.2   317     6.2   804.1    0.00 
 205   19:20   0.01   61.5    38    3.4    51     6.6   804.3    0.00 
 205   19:30   0.00   61.2    32    3.5     3     7.9   804.6    0.00 
 205   19:40   0.00   65.4    23    3.9   338     6.0   804.6    0.00 
 205   19:50   0.00   65.2    27    2.8   261     4.0   804.8    0.00 
 205   20:00   0.00   58.7    40    2.1   305     5.1   804.9    0.00 
 205   20:10   0.00   56.9    46    2.8   108     4.7   805.1    0.00 
 205   20:20   0.00   52.5    59    2.0   179     3.9   805.3    0.00 
 205   20:30   0.00   55.9    41    3.8   175     8.1   805.5    0.00 
 205   20:40   0.00   54.3    50    3.0   191     4.7   805.6    0.00 
 205   20:50   0.00   47.9    65    3.4   196     5.2   805.8    0.00 
 205   21:00   0.00   48.2    67    2.2   215     4.3   805.9    0.00 
 205   21:10   0.00   48.6    63    4.7   194     8.6   805.9    0.00 
 205   21:20   0.00   51.7    49    5.6   183     7.4   805.9    0.00 
 205   21:30   0.00   51.5    49    4.6   179     5.8   806.0    0.00 
 205   21:40   0.00   49.8    50    4.3   182     6.2   806.0    0.00 
 205   21:50   0.00   48.5    54    3.2   194     5.2   806.0    0.00 
 205   22:00   0.00   49.4    51    3.8   226     6.1   805.9    0.00 
 205   22:10   0.00   47.2    59    4.4   250     5.2   806.0    0.00 
 205   22:20   0.00   49.0    53    3.4   215     4.5   806.0    0.00 
 205   22:30   0.00   48.7    53    2.6   179     4.7   806.0    0.00 
 205   22:40   0.00   48.5    50    2.9   150     4.5   806.0    0.00 
 205   22:50   0.00   48.1    53    4.8   212     5.8   806.1    0.00 
 205   23:00   0.00   47.2    57    4.0   237     5.8   806.1    0.00 
 205   23:10   0.00   48.1    52    2.5   226     4.0   806.2    0.00 
 205   23:20   0.00   49.7    48    2.4   195     4.7   806.1    0.00 
 205   23:30   0.00   46.4    62    3.8   217     6.0   806.1    0.00 
 205   23:40   0.00   42.1    78    2.4   242     3.4   806.0    0.00 
 205   23:50   0.00   41.8    82    3.1   246     4.4   806.0    0.00 
 206    0:00   0.00   41.5    74    1.5   260     3.4   805.9    0.00 
 206    0:10   0.00   47.0    54    3.5   178     5.5   805.8    0.00 
 206    0:20   0.00   43.2    63    1.5   160     3.3   805.8    0.00 
 206    0:30   0.00   41.3    69    2.1   223     4.1   805.8    0.00 
 206    0:40   0.00   41.9    69    3.7   221     4.7   805.8    0.00 
 206    0:50   0.00   44.5    62    2.7   218     4.4   805.7    0.00 
 206    1:00   0.00   43.2    68    4.5   210     5.8   805.7    0.00 
 206    1:10   0.00   41.1    74    2.7   209     4.5   805.7    0.00 
 206    1:20   0.00   39.0    79    3.3   225     4.5   805.7    0.00 
 206    1:30   0.00   40.3    76    2.8   203     5.1   805.6    0.00 
 206    1:40   0.00   41.1    68    3.1   233     4.4   805.5    0.00 
 206    1:50   0.00   42.5    63    3.5   242     4.4   805.5    0.00 
 206    2:00   0.00   42.1    64    2.7   224     3.7   805.6    0.00 
 206    2:10   0.00   43.2    63    2.4   186     2.9   805.6    0.00 
 206    2:20   0.00   41.1    73    3.5   206     4.9   805.5    0.00 
 206    2:30   0.00   37.4    83    3.5   217     4.7   805.4    0.00 
 206    2:40   0.00   37.8    84    3.2   206     4.2   805.4    0.00 
 206    2:50   0.00   38.1    78    2.4   220     3.4   805.4    0.00 
 206    3:00   0.00   36.8    83    2.3   260     3.3   805.4    0.00 
 206    3:10   0.00   37.9    79    2.3   219     3.1   805.4    0.00 
 206    3:20   0.00   40.4    62    2.7   191     3.7   805.3    0.00 
 206    3:30   0.00   38.7    76    3.2   224     4.1   805.3    0.00 
 206    3:40   0.00   37.0    82    0.4   288     1.5   805.3    0.00 
 206    3:50   0.00   37.1    80    1.9   186     3.1   805.3    0.00 
 206    4:00   0.00   36.5    84    3.2   208     4.2   805.3    0.00 
 206    4:10   0.00   35.2    87    2.6   223     3.5   805.3    0.00 
 206    4:20   0.00   34.8    86    3.4   225     3.9   805.3    0.00 
 206    4:30   0.00   38.1    72    3.1   196     3.9   805.3    0.00 
 206    4:40   0.00   37.1    76    2.3   207     3.2   805.3    0.00 
 206    4:50   0.00   35.0    84    1.6   230     2.3   805.4    0.00 
 206    5:00   0.01   35.0    89    1.6   245     3.1   805.5    0.00 
 206    5:10   0.01   34.4    89    1.4   253     2.6   805.5    0.00 
 206    5:20   0.04   34.6    88    1.5   248     2.0   805.5    0.00 
 206    5:30   0.07   36.3    87    1.3   222     1.8   805.6    0.00 
 206    5:40   0.10   37.6    86    1.7   204     2.7   805.7    0.00 
 206    5:50   0.13   38.5    81    2.6   216     3.4   805.7    0.00 
 206    6:00   0.16   40.2    80    2.0   231     3.2   805.8    0.00 
 206    6:10   0.19   43.4    72    1.1   224     1.7   805.9    0.00 
 206    6:20   0.22   46.8    62    0.8   190     2.0   806.0    0.00 
 206    6:30   0.25   49.5    53    0.8   197     1.8   806.2    0.00 
 206    6:40   0.29   52.8    47    0.0     0     0.0   806.2    0.00 
 206    6:50   0.33   53.6    44    0.1   198     0.8   806.3    0.00 
 206    7:00   0.36   56.1    42    0.0     0     0.0   806.3    0.00 
 206    7:10   0.40   57.5    41    0.0     1     0.8   806.3    0.00 
 206    7:20   0.44   59.5    34    0.2     4     1.5   806.3    0.00 
 206    7:30   0.47   60.1    32    0.5    11     2.3   806.3    0.00 
 206    7:40   0.51   61.3    32    0.2    81     1.4   806.3    0.00 
 206    7:50   0.54   63.3    32    0.5    94     1.8   806.2    0.00 
 206    8:00   0.58   63.1    34    0.6    24     1.8   806.1    0.00 
 206    8:10   0.61   64.4    34    0.3     2     1.8   806.0    0.00 
 206    8:20   0.65   63.9    34    0.9    36     2.9   805.9    0.00 
 206    8:30   0.68   65.3    34    1.0    87     2.9   805.8    0.00 
 206    8:40   0.71   66.2    32    0.9    46     2.3   805.6    0.00 
 206    8:50   0.74   66.8    32    1.2   280     2.5   805.4    0.00 
 206    9:00   0.77   67.5    32    0.7   245     1.9   805.3    0.00 
 206    9:10   0.80   69.5    34    0.8   203     2.2   805.2    0.00 
 206    9:20   0.82   71.5    32    0.9   220     3.5   805.0    0.00 
 206    9:30   0.85   70.7    30    1.4   224     3.4   804.9    0.00 
 206    9:40   0.88   72.9    26    0.3   142     2.0   804.8    0.00 
 206    9:50   0.90   75.1    27    0.7   210     2.2   804.6    0.00 
 206   10:00   0.92   75.6    26    0.7   227     2.7   804.5    0.00 
 206   10:10   0.94   77.0    30    0.7   230     1.8   804.4    0.00 
 206   10:20   0.96   77.5    29    1.5   319     5.2   804.4    0.00 
 206   10:30   0.98   77.0    24    2.7   308     4.7   804.3    0.00 
 206   10:40   0.99   77.3    26    3.7   322     7.6   804.2    0.00 
 206   10:50   1.01   78.0    27    4.6   330     7.8   804.2    0.00 
 206   11:00   1.02   78.4    26    5.9   346     8.8   804.0    0.00 
 206   11:10   1.03   79.6    24    5.2   349     7.9   803.9    0.00 
 206   11:20   1.04   80.8    23    4.7   355     8.5   803.9    0.00 
 206   11:30   1.05   81.2    19    5.2   356     9.5   803.9    0.00 
 206   11:40   1.06   81.2    19    6.4     1     9.2   803.9    0.00 
 206   11:50   1.06   82.1    19    3.2    62     7.2   803.9    0.00 
 206   12:00   1.07   83.6    14    5.5   227    12.5   803.8    0.00 
 206   12:10   1.07   83.3    17    9.5   224    19.2   803.8    0.00 
 206   12:20   1.07   82.7    16   12.4   232    18.8   803.8    0.00 
 206   12:30   1.06   82.8    16   11.2   239    18.6   803.8    0.00 
 206   12:40   1.06   83.2    16   10.8   229    16.3   803.9    0.00 
 206   12:50   1.05   82.8    16   11.1   242    18.6   804.0    0.00 
 206   13:00   1.04   82.7    18   11.4   244    18.4   803.9    0.00 
 206   13:10   1.03   83.0    16    9.0   243    13.7   804.0    0.00 
 206   13:20   1.02   83.9    14    8.7   231    15.9   804.0    0.00 
 206   13:30   1.00   84.0    14    8.4   231    20.7   804.1    0.00 
 206   13:40   0.99   84.8    12    3.6   240     9.1   804.1    0.00 
 206   13:50   0.97   85.1    12    3.8   251    11.5   804.1    0.00 
 206   14:00   0.95   84.7    14    4.7   289     8.2   804.1    0.00 
 206   14:10   0.93   84.3    15    7.3   263    21.1   804.1    0.00 
 206   14:20   0.91   84.1    12    6.5   270    12.7   804.1    0.00 
 206   14:30   0.89   83.5    14    8.2   263    17.9   804.1    0.00 
 206   14:40   0.86   83.3    14   10.1   229    24.1   804.1    0.00 
 206   14:50   0.84   84.2    12    4.0   267    21.4   804.1    0.00 
 206   15:00   0.81   83.8    16    7.4   258    13.7   804.1    0.00 
 206   15:10   0.78   83.5    15    6.6   232    18.0   804.1    0.00 
 206   15:20   0.75   84.0    15    5.3   266    12.5   804.1    0.00 

Return to Bridgeport Valley graphs page.


Western Regional Climate Center,wrcc@dri.edu